sensor_id;sensor_type;location;lat;lon;timestamp;P1;durP1;ratioP1;P2;durP2;ratioP2
74223;SDS011;62585;49.706;18.216;2024-03-17T00:02:08;6.90;;;3.08;;
74223;SDS011;62585;49.706;18.216;2024-03-17T00:04:34;8.80;;;3.03;;
74223;SDS011;62585;49.706;18.216;2024-03-17T00:07:00;6.28;;;2.35;;
74223;SDS011;62585;49.706;18.216;2024-03-17T00:09:26;7.03;;;2.85;;
74223;SDS011;62585;49.706;18.216;2024-03-17T00:11:52;4.65;;;2.38;;
74223;SDS011;62585;49.706;18.216;2024-03-17T00:14:17;6.80;;;2.28;;
74223;SDS011;62585;49.706;18.216;2024-03-17T00:16:43;6.22;;;2.65;;
74223;SDS011;62585;49.706;18.216;2024-03-17T00:19:10;7.22;;;3.00;;
74223;SDS011;62585;49.706;18.216;2024-03-17T00:21:35;6.53;;;2.47;;
74223;SDS011;62585;49.706;18.216;2024-03-17T00:24:01;6.55;;;2.20;;
74223;SDS011;62585;49.706;18.216;2024-03-17T00:26:28;7.50;;;2.63;;
74223;SDS011;62585;49.706;18.216;2024-03-17T00:28:55;6.20;;;2.10;;
74223;SDS011;62585;49.706;18.216;2024-03-17T00:31:20;7.00;;;2.42;;
74223;SDS011;62585;49.706;18.216;2024-03-17T00:33:46;7.07;;;2.83;;
74223;SDS011;62585;49.706;18.216;2024-03-17T00:36:13;2.40;;;1.83;;
74223;SDS011;62585;49.706;18.216;2024-03-17T00:38:40;3.95;;;2.00;;
74223;SDS011;62585;49.706;18.216;2024-03-17T00:41:05;4.30;;;2.22;;
74223;SDS011;62585;49.706;18.216;2024-03-17T00:43:32;8.30;;;2.67;;
74223;SDS011;62585;49.706;18.216;2024-03-17T00:45:57;3.95;;;2.30;;
74223;SDS011;62585;49.706;18.216;2024-03-17T00:48:24;5.57;;;2.08;;
74223;SDS011;62585;49.706;18.216;2024-03-17T00:50:56;3.97;;;1.77;;
74223;SDS011;62585;49.706;18.216;2024-03-17T00:53:22;3.78;;;1.98;;
74223;SDS011;62585;49.706;18.216;2024-03-17T00:55:57;4.72;;;2.47;;
74223;SDS011;62585;49.706;18.216;2024-03-17T00:58:26;5.07;;;2.10;;
74223;SDS011;62585;49.706;18.216;2024-03-17T01:00:52;9.90;;;2.28;;
74223;SDS011;62585;49.706;18.216;2024-03-17T01:03:18;7.68;;;2.25;;
74223;SDS011;62585;49.706;18.216;2024-03-17T01:05:44;6.43;;;2.40;;
74223;SDS011;62585;49.706;18.216;2024-03-17T01:08:13;5.35;;;1.80;;
74223;SDS011;62585;49.706;18.216;2024-03-17T01:10:40;5.13;;;2.50;;
74223;SDS011;62585;49.706;18.216;2024-03-17T01:13:07;7.45;;;2.60;;
74223;SDS011;62585;49.706;18.216;2024-03-17T01:15:34;4.65;;;2.15;;
74223;SDS011;62585;49.706;18.216;2024-03-17T01:18:00;5.72;;;1.95;;
74223;SDS011;62585;49.706;18.216;2024-03-17T01:20:26;4.25;;;2.10;;
74223;SDS011;62585;49.706;18.216;2024-03-17T01:22:52;6.40;;;2.45;;
74223;SDS011;62585;49.706;18.216;2024-03-17T01:25:18;4.95;;;2.17;;
74223;SDS011;62585;49.706;18.216;2024-03-17T01:27:45;4.93;;;2.38;;
74223;SDS011;62585;49.706;18.216;2024-03-17T01:30:11;5.57;;;2.33;;
74223;SDS011;62585;49.706;18.216;2024-03-17T01:32:37;6.57;;;2.28;;
74223;SDS011;62585;49.706;18.216;2024-03-17T01:35:03;5.45;;;2.58;;
74223;SDS011;62585;49.706;18.216;2024-03-17T01:37:31;7.32;;;2.65;;
74223;SDS011;62585;49.706;18.216;2024-03-17T01:40:00;6.38;;;2.45;;
74223;SDS011;62585;49.706;18.216;2024-03-17T01:42:26;4.18;;;1.98;;
74223;SDS011;62585;49.706;18.216;2024-03-17T01:44:54;5.03;;;2.00;;
74223;SDS011;62585;49.706;18.216;2024-03-17T01:47:20;5.57;;;2.72;;
74223;SDS011;62585;49.706;18.216;2024-03-17T01:49:46;4.68;;;2.45;;
74223;SDS011;62585;49.706;18.216;2024-03-17T01:52:14;4.55;;;2.25;;
74223;SDS011;62585;49.706;18.216;2024-03-17T01:54:41;5.30;;;2.88;;
74223;SDS011;62585;49.706;18.216;2024-03-17T01:57:07;4.43;;;2.47;;
74223;SDS011;62585;49.706;18.216;2024-03-17T01:59:33;7.55;;;2.55;;
74223;SDS011;62585;49.706;18.216;2024-03-17T02:01:59;6.28;;;3.13;;
74223;SDS011;62585;49.706;18.216;2024-03-17T02:04:25;5.38;;;2.55;;
74223;SDS011;62585;49.706;18.216;2024-03-17T02:06:51;6.15;;;2.22;;
74223;SDS011;62585;49.706;18.216;2024-03-17T02:09:16;11.93;;;3.03;;
74223;SDS011;62585;49.706;18.216;2024-03-17T02:14:09;5.15;;;2.30;;
74223;SDS011;62585;49.706;18.216;2024-03-17T02:16:36;5.78;;;2.60;;
74223;SDS011;62585;49.706;18.216;2024-03-17T02:19:01;4.75;;;2.65;;
74223;SDS011;62585;49.706;18.216;2024-03-17T02:21:27;5.40;;;2.38;;
74223;SDS011;62585;49.706;18.216;2024-03-17T02:23:53;6.63;;;2.58;;
74223;SDS011;62585;49.706;18.216;2024-03-17T02:26:20;4.82;;;2.53;;
74223;SDS011;62585;49.706;18.216;2024-03-17T02:28:47;4.68;;;2.58;;
74223;SDS011;62585;49.706;18.216;2024-03-17T02:31:14;4.78;;;2.70;;
74223;SDS011;62585;49.706;18.216;2024-03-17T02:33:41;4.90;;;1.98;;
74223;SDS011;62585;49.706;18.216;2024-03-17T02:36:07;5.18;;;2.22;;
74223;SDS011;62585;49.706;18.216;2024-03-17T02:38:34;6.57;;;2.50;;
74223;SDS011;62585;49.706;18.216;2024-03-17T02:41:19;4.47;;;2.40;;
74223;SDS011;62585;49.706;18.216;2024-03-17T02:43:46;5.38;;;2.50;;
74223;SDS011;62585;49.706;18.216;2024-03-17T02:46:13;6.28;;;2.30;;
74223;SDS011;62585;49.706;18.216;2024-03-17T02:48:39;6.25;;;2.15;;
74223;SDS011;62585;49.706;18.216;2024-03-17T02:51:23;5.18;;;2.55;;
74223;SDS011;62585;49.706;18.216;2024-03-17T02:53:49;7.63;;;2.30;;
74223;SDS011;62585;49.706;18.216;2024-03-17T02:56:16;4.55;;;2.20;;
74223;SDS011;62585;49.706;18.216;2024-03-17T02:58:43;3.35;;;2.33;;
74223;SDS011;62585;49.706;18.216;2024-03-17T03:01:12;5.78;;;2.25;;
74223;SDS011;62585;49.706;18.216;2024-03-17T03:03:38;7.53;;;2.40;;
74223;SDS011;62585;49.706;18.216;2024-03-17T03:06:04;4.07;;;2.22;;
74223;SDS011;62585;49.706;18.216;2024-03-17T03:08:37;4.53;;;2.30;;
74223;SDS011;62585;49.706;18.216;2024-03-17T03:11:09;5.10;;;1.95;;
74223;SDS011;62585;49.706;18.216;2024-03-17T03:16:11;5.10;;;2.38;;
74223;SDS011;62585;49.706;18.216;2024-03-17T03:18:39;4.00;;;1.92;;
74223;SDS011;62585;49.706;18.216;2024-03-17T03:21:05;4.50;;;2.00;;
74223;SDS011;62585;49.706;18.216;2024-03-17T03:23:31;4.97;;;1.90;;
74223;SDS011;62585;49.706;18.216;2024-03-17T03:25:58;2.88;;;1.95;;
74223;SDS011;62585;49.706;18.216;2024-03-17T03:28:26;5.22;;;1.98;;
74223;SDS011;62585;49.706;18.216;2024-03-17T03:30:52;5.43;;;1.90;;
74223;SDS011;62585;49.706;18.216;2024-03-17T03:33:18;6.25;;;2.10;;
74223;SDS011;62585;49.706;18.216;2024-03-17T03:35:45;7.13;;;1.60;;
74223;SDS011;62585;49.706;18.216;2024-03-17T03:38:11;6.03;;;2.25;;
74223;SDS011;62585;49.706;18.216;2024-03-17T03:40:39;3.90;;;1.42;;
74223;SDS011;62585;49.706;18.216;2024-03-17T03:43:05;9.55;;;1.83;;
74223;SDS011;62585;49.706;18.216;2024-03-17T03:45:31;3.53;;;1.83;;
74223;SDS011;62585;49.706;18.216;2024-03-17T03:47:57;3.35;;;1.38;;
74223;SDS011;62585;49.706;18.216;2024-03-17T03:50:23;3.03;;;1.70;;
74223;SDS011;62585;49.706;18.216;2024-03-17T03:52:48;5.30;;;1.55;;
74223;SDS011;62585;49.706;18.216;2024-03-17T03:55:15;8.93;;;1.98;;
74223;SDS011;62585;49.706;18.216;2024-03-17T03:57:42;4.53;;;1.30;;
74223;SDS011;62585;49.706;18.216;2024-03-17T04:00:16;5.75;;;1.63;;
74223;SDS011;62585;49.706;18.216;2024-03-17T04:02:47;3.63;;;1.50;;
74223;SDS011;62585;49.706;18.216;2024-03-17T04:05:14;5.32;;;1.40;;
74223;SDS011;62585;49.706;18.216;2024-03-17T04:07:39;3.67;;;1.30;;
74223;SDS011;62585;49.706;18.216;2024-03-17T04:10:06;4.22;;;1.30;;
74223;SDS011;62585;49.706;18.216;2024-03-17T04:12:32;3.85;;;1.15;;
74223;SDS011;62585;49.706;18.216;2024-03-17T04:14:58;7.95;;;1.77;;
74223;SDS011;62585;49.706;18.216;2024-03-17T04:17:24;5.57;;;1.70;;
74223;SDS011;62585;49.706;18.216;2024-03-17T04:19:52;6.10;;;1.67;;
74223;SDS011;62585;49.706;18.216;2024-03-17T04:22:18;5.25;;;1.42;;
74223;SDS011;62585;49.706;18.216;2024-03-17T04:24:46;2.38;;;1.08;;
74223;SDS011;62585;49.706;18.216;2024-03-17T04:27:13;5.65;;;1.85;;
74223;SDS011;62585;49.706;18.216;2024-03-17T04:29:39;2.42;;;1.38;;
74223;SDS011;62585;49.706;18.216;2024-03-17T04:32:06;4.57;;;1.10;;
74223;SDS011;62585;49.706;18.216;2024-03-17T04:34:32;3.92;;;1.40;;
74223;SDS011;62585;49.706;18.216;2024-03-17T04:36:58;6.93;;;1.90;;
74223;SDS011;62585;49.706;18.216;2024-03-17T04:39:24;3.38;;;2.10;;
74223;SDS011;62585;49.706;18.216;2024-03-17T04:41:50;2.58;;;1.20;;
74223;SDS011;62585;49.706;18.216;2024-03-17T04:44:17;3.97;;;1.35;;
74223;SDS011;62585;49.706;18.216;2024-03-17T04:46:43;11.32;;;1.70;;
74223;SDS011;62585;49.706;18.216;2024-03-17T04:49:09;3.53;;;1.50;;
74223;SDS011;62585;49.706;18.216;2024-03-17T04:51:35;3.28;;;1.08;;
74223;SDS011;62585;49.706;18.216;2024-03-17T04:54:01;3.42;;;1.20;;
74223;SDS011;62585;49.706;18.216;2024-03-17T04:56:31;5.35;;;1.55;;
74223;SDS011;62585;49.706;18.216;2024-03-17T04:58:57;4.35;;;1.40;;
74223;SDS011;62585;49.706;18.216;2024-03-17T05:01:22;2.30;;;1.10;;
74223;SDS011;62585;49.706;18.216;2024-03-17T05:03:52;9.43;;;1.80;;
74223;SDS011;62585;49.706;18.216;2024-03-17T05:06:18;4.53;;;1.10;;
74223;SDS011;62585;49.706;18.216;2024-03-17T05:08:44;4.47;;;1.15;;
74223;SDS011;62585;49.706;18.216;2024-03-17T05:11:10;2.38;;;1.10;;
74223;SDS011;62585;49.706;18.216;2024-03-17T05:13:37;4.95;;;1.10;;
74223;SDS011;62585;49.706;18.216;2024-03-17T05:16:05;5.78;;;1.27;;
74223;SDS011;62585;49.706;18.216;2024-03-17T05:18:32;3.92;;;1.13;;
74223;SDS011;62585;49.706;18.216;2024-03-17T05:21:03;2.83;;;0.90;;
74223;SDS011;62585;49.706;18.216;2024-03-17T05:23:34;4.07;;;1.33;;
74223;SDS011;62585;49.706;18.216;2024-03-17T05:26:02;4.90;;;1.15;;
74223;SDS011;62585;49.706;18.216;2024-03-17T05:28:32;1.25;;;1.10;;
74223;SDS011;62585;49.706;18.216;2024-03-17T05:30:58;1.73;;;0.82;;
74223;SDS011;62585;49.706;18.216;2024-03-17T05:33:25;4.95;;;1.25;;
74223;SDS011;62585;49.706;18.216;2024-03-17T05:35:51;2.13;;;1.38;;
74223;SDS011;62585;49.706;18.216;2024-03-17T05:38:19;5.82;;;1.10;;
74223;SDS011;62585;49.706;18.216;2024-03-17T05:40:55;3.72;;;1.05;;
74223;SDS011;62585;49.706;18.216;2024-03-17T05:43:24;3.78;;;1.38;;
74223;SDS011;62585;49.706;18.216;2024-03-17T05:45:51;3.05;;;1.10;;
74223;SDS011;62585;49.706;18.216;2024-03-17T05:48:21;4.00;;;1.20;;
74223;SDS011;62585;49.706;18.216;2024-03-17T05:50:47;5.15;;;1.67;;
74223;SDS011;62585;49.706;18.216;2024-03-17T05:53:14;2.05;;;1.10;;
74223;SDS011;62585;49.706;18.216;2024-03-17T05:55:40;2.78;;;1.00;;
74223;SDS011;62585;49.706;18.216;2024-03-17T05:58:09;2.25;;;1.10;;
74223;SDS011;62585;49.706;18.216;2024-03-17T06:00:35;2.90;;;0.98;;
74223;SDS011;62585;49.706;18.216;2024-03-17T06:03:03;7.35;;;1.55;;
74223;SDS011;62585;49.706;18.216;2024-03-17T06:08:00;1.80;;;0.95;;
74223;SDS011;62585;49.706;18.216;2024-03-17T06:10:31;3.83;;;1.65;;
74223;SDS011;62585;49.706;18.216;2024-03-17T06:12:58;5.82;;;1.40;;
74223;SDS011;62585;49.706;18.216;2024-03-17T06:15:25;2.22;;;1.40;;
74223;SDS011;62585;49.706;18.216;2024-03-17T06:17:51;2.15;;;1.30;;
74223;SDS011;62585;49.706;18.216;2024-03-17T06:20:18;4.25;;;1.48;;
74223;SDS011;62585;49.706;18.216;2024-03-17T06:22:44;4.55;;;1.90;;
74223;SDS011;62585;49.706;18.216;2024-03-17T06:25:11;2.35;;;1.08;;
74223;SDS011;62585;49.706;18.216;2024-03-17T06:27:37;1.63;;;0.95;;
74223;SDS011;62585;49.706;18.216;2024-03-17T06:30:03;4.20;;;1.20;;
74223;SDS011;62585;49.706;18.216;2024-03-17T06:32:30;2.58;;;1.40;;
74223;SDS011;62585;49.706;18.216;2024-03-17T06:34:57;2.22;;;1.17;;
74223;SDS011;62585;49.706;18.216;2024-03-17T06:37:24;2.58;;;1.42;;
74223;SDS011;62585;49.706;18.216;2024-03-17T06:39:50;7.40;;;1.30;;
74223;SDS011;62585;49.706;18.216;2024-03-17T06:42:16;5.03;;;1.42;;
74223;SDS011;62585;49.706;18.216;2024-03-17T06:44:42;6.88;;;1.48;;
74223;SDS011;62585;49.706;18.216;2024-03-17T06:47:08;3.90;;;1.65;;
74223;SDS011;62585;49.706;18.216;2024-03-17T06:49:33;3.83;;;1.20;;
74223;SDS011;62585;49.706;18.216;2024-03-17T06:51:59;8.55;;;1.42;;
74223;SDS011;62585;49.706;18.216;2024-03-17T06:54:25;4.72;;;1.48;;
74223;SDS011;62585;49.706;18.216;2024-03-17T06:56:51;5.97;;;1.00;;
74223;SDS011;62585;49.706;18.216;2024-03-17T06:59:17;3.40;;;1.00;;
74223;SDS011;62585;49.706;18.216;2024-03-17T07:01:43;3.42;;;1.40;;
74223;SDS011;62585;49.706;18.216;2024-03-17T07:04:12;3.40;;;1.40;;
74223;SDS011;62585;49.706;18.216;2024-03-17T07:06:38;3.50;;;1.10;;
74223;SDS011;62585;49.706;18.216;2024-03-17T07:09:04;3.50;;;1.40;;
74223;SDS011;62585;49.706;18.216;2024-03-17T07:11:31;4.28;;;1.38;;
74223;SDS011;62585;49.706;18.216;2024-03-17T07:13:57;3.28;;;1.15;;
74223;SDS011;62585;49.706;18.216;2024-03-17T07:16:22;3.65;;;1.13;;
74223;SDS011;62585;49.706;18.216;2024-03-17T07:18:51;2.55;;;0.93;;
74223;SDS011;62585;49.706;18.216;2024-03-17T07:21:21;5.55;;;1.20;;
74223;SDS011;62585;49.706;18.216;2024-03-17T07:23:47;4.07;;;1.55;;
74223;SDS011;62585;49.706;18.216;2024-03-17T07:26:13;3.30;;;1.33;;
74223;SDS011;62585;49.706;18.216;2024-03-17T07:28:39;4.05;;;1.83;;
74223;SDS011;62585;49.706;18.216;2024-03-17T07:31:06;3.03;;;1.38;;
74223;SDS011;62585;49.706;18.216;2024-03-17T07:33:34;6.32;;;1.15;;
74223;SDS011;62585;49.706;18.216;2024-03-17T07:36:00;5.22;;;1.20;;
74223;SDS011;62585;49.706;18.216;2024-03-17T07:38:27;7.82;;;1.40;;
74223;SDS011;62585;49.706;18.216;2024-03-17T07:40:58;1.58;;;0.88;;
74223;SDS011;62585;49.706;18.216;2024-03-17T07:43:25;2.40;;;0.95;;
74223;SDS011;62585;49.706;18.216;2024-03-17T07:45:58;2.58;;;1.17;;
74223;SDS011;62585;49.706;18.216;2024-03-17T07:48:31;2.53;;;1.13;;
74223;SDS011;62585;49.706;18.216;2024-03-17T07:51:02;2.05;;;1.15;;
74223;SDS011;62585;49.706;18.216;2024-03-17T07:53:41;4.50;;;1.40;;
74223;SDS011;62585;49.706;18.216;2024-03-17T07:58:34;3.47;;;0.88;;
74223;SDS011;62585;49.706;18.216;2024-03-17T08:01:04;1.70;;;0.95;;
74223;SDS011;62585;49.706;18.216;2024-03-17T08:03:31;0.88;;;0.60;;
74223;SDS011;62585;49.706;18.216;2024-03-17T08:05:59;4.68;;;1.25;;
74223;SDS011;62585;49.706;18.216;2024-03-17T08:10:53;4.63;;;1.35;;
74223;SDS011;62585;49.706;18.216;2024-03-17T08:13:19;3.85;;;1.27;;
74223;SDS011;62585;49.706;18.216;2024-03-17T08:15:46;2.20;;;0.70;;
74223;SDS011;62585;49.706;18.216;2024-03-17T08:18:20;1.70;;;0.93;;
74223;SDS011;62585;49.706;18.216;2024-03-17T08:20:46;1.58;;;0.80;;
74223;SDS011;62585;49.706;18.216;2024-03-17T08:23:12;3.10;;;1.27;;
74223;SDS011;62585;49.706;18.216;2024-03-17T08:25:38;1.63;;;0.80;;
74223;SDS011;62585;49.706;18.216;2024-03-17T08:28:04;2.97;;;1.02;;
74223;SDS011;62585;49.706;18.216;2024-03-17T08:30:30;2.00;;;0.77;;
74223;SDS011;62585;49.706;18.216;2024-03-17T08:32:56;3.28;;;1.20;;
74223;SDS011;62585;49.706;18.216;2024-03-17T08:35:22;4.05;;;1.23;;
74223;SDS011;62585;49.706;18.216;2024-03-17T08:37:48;1.65;;;0.90;;
74223;SDS011;62585;49.706;18.216;2024-03-17T08:40:14;1.20;;;0.70;;
74223;SDS011;62585;49.706;18.216;2024-03-17T08:42:40;5.10;;;1.05;;
74223;SDS011;62585;49.706;18.216;2024-03-17T08:45:06;3.22;;;1.42;;
74223;SDS011;62585;49.706;18.216;2024-03-17T08:47:32;3.10;;;1.20;;
74223;SDS011;62585;49.706;18.216;2024-03-17T08:49:57;3.95;;;0.80;;
74223;SDS011;62585;49.706;18.216;2024-03-17T08:52:29;2.65;;;0.98;;
74223;SDS011;62585;49.706;18.216;2024-03-17T08:54:57;4.75;;;1.02;;
74223;SDS011;62585;49.706;18.216;2024-03-17T08:57:23;2.30;;;0.70;;
74223;SDS011;62585;49.706;18.216;2024-03-17T08:59:49;1.95;;;0.98;;
74223;SDS011;62585;49.706;18.216;2024-03-17T09:02:18;1.70;;;0.70;;
74223;SDS011;62585;49.706;18.216;2024-03-17T09:04:45;1.08;;;0.70;;
74223;SDS011;62585;49.706;18.216;2024-03-17T09:07:10;1.50;;;0.80;;
74223;SDS011;62585;49.706;18.216;2024-03-17T09:09:36;4.03;;;0.70;;
74223;SDS011;62585;49.706;18.216;2024-03-17T09:12:02;1.92;;;0.73;;
74223;SDS011;62585;49.706;18.216;2024-03-17T09:14:29;2.13;;;0.70;;
74223;SDS011;62585;49.706;18.216;2024-03-17T09:16:55;2.47;;;0.70;;
74223;SDS011;62585;49.706;18.216;2024-03-17T09:19:23;3.05;;;0.80;;
74223;SDS011;62585;49.706;18.216;2024-03-17T09:21:49;2.75;;;0.50;;
74223;SDS011;62585;49.706;18.216;2024-03-17T09:24:15;1.23;;;0.60;;
74223;SDS011;62585;49.706;18.216;2024-03-17T09:26:40;4.63;;;0.80;;
74223;SDS011;62585;49.706;18.216;2024-03-17T09:29:06;2.70;;;0.77;;
74223;SDS011;62585;49.706;18.216;2024-03-17T09:31:32;2.88;;;0.88;;
74223;SDS011;62585;49.706;18.216;2024-03-17T09:34:03;1.52;;;0.60;;
74223;SDS011;62585;49.706;18.216;2024-03-17T09:36:29;2.15;;;0.50;;
74223;SDS011;62585;49.706;18.216;2024-03-17T09:38:56;1.65;;;1.05;;
74223;SDS011;62585;49.706;18.216;2024-03-17T09:41:24;0.60;;;0.40;;
74223;SDS011;62585;49.706;18.216;2024-03-17T09:43:55;3.20;;;0.55;;
74223;SDS011;62585;49.706;18.216;2024-03-17T09:46:23;2.50;;;0.80;;
74223;SDS011;62585;49.706;18.216;2024-03-17T09:48:49;1.70;;;0.85;;
74223;SDS011;62585;49.706;18.216;2024-03-17T09:51:18;1.65;;;0.68;;
74223;SDS011;62585;49.706;18.216;2024-03-17T09:53:46;0.70;;;0.40;;
74223;SDS011;62585;49.706;18.216;2024-03-17T09:56:13;0.65;;;0.52;;
74223;SDS011;62585;49.706;18.216;2024-03-17T09:58:42;0.82;;;0.70;;
74223;SDS011;62585;49.706;18.216;2024-03-17T10:01:08;2.03;;;0.80;;
74223;SDS011;62585;49.706;18.216;2024-03-17T10:06:17;1.88;;;0.85;;
74223;SDS011;62585;49.706;18.216;2024-03-17T10:08:44;1.83;;;0.63;;
74223;SDS011;62585;49.706;18.216;2024-03-17T10:11:11;1.90;;;1.42;;
74223;SDS011;62585;49.706;18.216;2024-03-17T10:13:42;1.67;;;0.70;;
74223;SDS011;62585;49.706;18.216;2024-03-17T10:21:42;2.92;;;0.88;;
74223;SDS011;62585;49.706;18.216;2024-03-17T10:24:13;1.45;;;1.00;;
74223;SDS011;62585;49.706;18.216;2024-03-17T10:26:44;2.25;;;1.58;;
74223;SDS011;62585;49.706;18.216;2024-03-17T10:29:31;5.75;;;1.45;;
74223;SDS011;62585;49.706;18.216;2024-03-17T10:32:19;2.70;;;0.88;;
74223;SDS011;62585;49.706;18.216;2024-03-17T10:34:45;2.35;;;1.15;;
74223;SDS011;62585;49.706;18.216;2024-03-17T10:37:13;1.98;;;0.70;;
74223;SDS011;62585;49.706;18.216;2024-03-17T10:39:41;4.57;;;1.27;;
74223;SDS011;62585;49.706;18.216;2024-03-17T10:44:36;1.38;;;0.93;;
74223;SDS011;62585;49.706;18.216;2024-03-17T10:47:06;2.42;;;0.95;;
74223;SDS011;62585;49.706;18.216;2024-03-17T10:49:40;1.83;;;0.82;;
74223;SDS011;62585;49.706;18.216;2024-03-17T10:52:15;4.72;;;1.20;;
74223;SDS011;62585;49.706;18.216;2024-03-17T10:54:46;4.82;;;1.40;;
74223;SDS011;62585;49.706;18.216;2024-03-17T10:59:46;2.38;;;1.10;;
74223;SDS011;62585;49.706;18.216;2024-03-17T11:02:23;3.08;;;1.35;;
74223;SDS011;62585;49.706;18.216;2024-03-17T11:04:57;2.22;;;1.30;;
74223;SDS011;62585;49.706;18.216;2024-03-17T11:07:25;1.05;;;0.90;;
74223;SDS011;62585;49.706;18.216;2024-03-17T11:09:53;1.90;;;1.10;;
74223;SDS011;62585;49.706;18.216;2024-03-17T11:17:47;6.10;;;1.65;;
74223;SDS011;62585;49.706;18.216;2024-03-17T11:22:59;3.60;;;1.20;;
74223;SDS011;62585;49.706;18.216;2024-03-17T11:27:52;1.75;;;0.93;;
74223;SDS011;62585;49.706;18.216;2024-03-17T11:33:59;1.42;;;0.88;;
74223;SDS011;62585;49.706;18.216;2024-03-17T11:49:38;1.30;;;0.90;;
74223;SDS011;62585;49.706;18.216;2024-03-17T11:54:35;1.77;;;0.98;;
74223;SDS011;62585;49.706;18.216;2024-03-17T11:57:08;3.63;;;1.17;;
74223;SDS011;62585;49.706;18.216;2024-03-17T11:59:38;5.15;;;1.20;;
74223;SDS011;62585;49.706;18.216;2024-03-17T12:02:24;3.63;;;1.55;;
74223;SDS011;62585;49.706;18.216;2024-03-17T12:05:01;2.25;;;1.17;;
74223;SDS011;62585;49.706;18.216;2024-03-17T12:07:27;2.50;;;1.05;;
74223;SDS011;62585;49.706;18.216;2024-03-17T12:09:55;3.38;;;1.30;;
74223;SDS011;62585;49.706;18.216;2024-03-17T12:12:23;4.97;;;1.40;;
74223;SDS011;62585;49.706;18.216;2024-03-17T12:14:56;1.83;;;1.13;;
74223;SDS011;62585;49.706;18.216;2024-03-17T12:17:22;3.40;;;1.23;;
74223;SDS011;62585;49.706;18.216;2024-03-17T12:19:49;2.33;;;1.20;;
74223;SDS011;62585;49.706;18.216;2024-03-17T12:22:19;1.85;;;1.02;;
74223;SDS011;62585;49.706;18.216;2024-03-17T12:24:50;3.83;;;1.77;;
74223;SDS011;62585;49.706;18.216;2024-03-17T12:27:22;2.63;;;1.10;;
74223;SDS011;62585;49.706;18.216;2024-03-17T12:29:53;2.03;;;1.23;;
74223;SDS011;62585;49.706;18.216;2024-03-17T12:32:20;3.65;;;1.20;;
74223;SDS011;62585;49.706;18.216;2024-03-17T12:34:50;3.55;;;1.25;;
74223;SDS011;62585;49.706;18.216;2024-03-17T12:37:18;3.28;;;1.20;;
74223;SDS011;62585;49.706;18.216;2024-03-17T12:39:45;4.72;;;1.42;;
74223;SDS011;62585;49.706;18.216;2024-03-17T12:42:13;3.53;;;1.13;;
74223;SDS011;62585;49.706;18.216;2024-03-17T12:44:40;2.35;;;1.08;;
74223;SDS011;62585;49.706;18.216;2024-03-17T12:47:17;2.97;;;1.02;;
74223;SDS011;62585;49.706;18.216;2024-03-17T12:49:50;3.47;;;1.23;;
74223;SDS011;62585;49.706;18.216;2024-03-17T12:52:18;2.55;;;1.23;;
74223;SDS011;62585;49.706;18.216;2024-03-17T12:54:45;2.60;;;1.20;;
74223;SDS011;62585;49.706;18.216;2024-03-17T12:57:41;3.83;;;1.30;;
74223;SDS011;62585;49.706;18.216;2024-03-17T13:00:26;2.22;;;1.20;;
74223;SDS011;62585;49.706;18.216;2024-03-17T13:02:59;3.38;;;1.60;;
74223;SDS011;62585;49.706;18.216;2024-03-17T13:05:26;2.53;;;1.40;;
74223;SDS011;62585;49.706;18.216;2024-03-17T13:07:53;2.35;;;1.08;;
74223;SDS011;62585;49.706;18.216;2024-03-17T13:10:23;1.88;;;0.95;;
74223;SDS011;62585;49.706;18.216;2024-03-17T13:13:03;5.78;;;1.25;;
74223;SDS011;62585;49.706;18.216;2024-03-17T13:15:30;3.45;;;1.10;;
74223;SDS011;62585;49.706;18.216;2024-03-17T13:17:57;4.05;;;1.85;;
74223;SDS011;62585;49.706;18.216;2024-03-17T13:20:23;2.88;;;1.35;;
74223;SDS011;62585;49.706;18.216;2024-03-17T13:22:50;2.53;;;1.40;;
74223;SDS011;62585;49.706;18.216;2024-03-17T13:25:20;1.92;;;1.17;;
74223;SDS011;62585;49.706;18.216;2024-03-17T13:27:49;2.03;;;1.00;;
74223;SDS011;62585;49.706;18.216;2024-03-17T13:30:16;2.58;;;1.60;;
74223;SDS011;62585;49.706;18.216;2024-03-17T13:32:44;3.45;;;1.75;;
74223;SDS011;62585;49.706;18.216;2024-03-17T13:35:19;3.15;;;1.65;;
74223;SDS011;62585;49.706;18.216;2024-03-17T13:37:47;4.43;;;1.95;;
74223;SDS011;62585;49.706;18.216;2024-03-17T13:40:19;3.85;;;1.65;;
74223;SDS011;62585;49.706;18.216;2024-03-17T13:42:48;1.95;;;1.13;;
74223;SDS011;62585;49.706;18.216;2024-03-17T13:45:15;3.78;;;1.60;;
74223;SDS011;62585;49.706;18.216;2024-03-17T13:50:11;3.75;;;1.65;;
74223;SDS011;62585;49.706;18.216;2024-03-17T13:52:41;2.33;;;1.30;;
74223;SDS011;62585;49.706;18.216;2024-03-17T13:55:12;3.00;;;1.20;;
74223;SDS011;62585;49.706;18.216;2024-03-17T13:57:40;2.65;;;1.17;;
74223;SDS011;62585;49.706;18.216;2024-03-17T14:00:07;3.50;;;1.00;;
74223;SDS011;62585;49.706;18.216;2024-03-17T14:02:33;2.25;;;1.17;;
74223;SDS011;62585;49.706;18.216;2024-03-17T14:04:59;2.40;;;1.20;;
74223;SDS011;62585;49.706;18.216;2024-03-17T14:07:25;3.17;;;1.10;;
74223;SDS011;62585;49.706;18.216;2024-03-17T14:09:51;3.45;;;1.50;;
74223;SDS011;62585;49.706;18.216;2024-03-17T14:12:17;2.50;;;1.20;;
74223;SDS011;62585;49.706;18.216;2024-03-17T14:14:43;2.67;;;1.52;;
74223;SDS011;62585;49.706;18.216;2024-03-17T14:17:09;4.43;;;1.30;;
74223;SDS011;62585;49.706;18.216;2024-03-17T14:19:35;2.17;;;1.20;;
74223;SDS011;62585;49.706;18.216;2024-03-17T14:22:01;5.55;;;1.38;;
74223;SDS011;62585;49.706;18.216;2024-03-17T14:24:27;3.58;;;1.30;;
74223;SDS011;62585;49.706;18.216;2024-03-17T14:26:54;2.17;;;1.10;;
74223;SDS011;62585;49.706;18.216;2024-03-17T14:29:19;2.58;;;1.10;;
74223;SDS011;62585;49.706;18.216;2024-03-17T14:31:46;2.40;;;1.50;;
74223;SDS011;62585;49.706;18.216;2024-03-17T14:34:11;3.05;;;1.55;;
74223;SDS011;62585;49.706;18.216;2024-03-17T14:36:37;4.03;;;1.25;;
74223;SDS011;62585;49.706;18.216;2024-03-17T14:39:03;3.33;;;1.30;;
74223;SDS011;62585;49.706;18.216;2024-03-17T14:41:30;2.03;;;1.10;;
74223;SDS011;62585;49.706;18.216;2024-03-17T14:43:56;1.58;;;1.05;;
74223;SDS011;62585;49.706;18.216;2024-03-17T14:46:23;3.28;;;1.48;;
74223;SDS011;62585;49.706;18.216;2024-03-17T14:48:49;2.90;;;1.30;;
74223;SDS011;62585;49.706;18.216;2024-03-17T14:51:17;4.28;;;1.10;;
74223;SDS011;62585;49.706;18.216;2024-03-17T14:53:49;3.60;;;1.17;;
74223;SDS011;62585;49.706;18.216;2024-03-17T14:56:17;2.97;;;1.60;;
74223;SDS011;62585;49.706;18.216;2024-03-17T14:58:44;2.00;;;1.27;;
74223;SDS011;62585;49.706;18.216;2024-03-17T15:01:14;4.28;;;1.38;;
74223;SDS011;62585;49.706;18.216;2024-03-17T15:03:39;2.13;;;1.17;;
74223;SDS011;62585;49.706;18.216;2024-03-17T15:06:12;3.90;;;1.08;;
74223;SDS011;62585;49.706;18.216;2024-03-17T15:08:40;2.05;;;1.10;;
74223;SDS011;62585;49.706;18.216;2024-03-17T15:13:35;5.55;;;1.73;;
74223;SDS011;62585;49.706;18.216;2024-03-17T15:16:02;3.03;;;1.30;;
74223;SDS011;62585;49.706;18.216;2024-03-17T15:18:31;3.78;;;1.40;;
74223;SDS011;62585;49.706;18.216;2024-03-17T15:23:27;2.70;;;0.98;;
74223;SDS011;62585;49.706;18.216;2024-03-17T15:26:00;2.58;;;2.15;;
74223;SDS011;62585;49.706;18.216;2024-03-17T15:28:36;2.90;;;1.35;;
74223;SDS011;62585;49.706;18.216;2024-03-17T15:31:06;2.75;;;1.10;;
74223;SDS011;62585;49.706;18.216;2024-03-17T15:33:32;3.70;;;1.20;;
74223;SDS011;62585;49.706;18.216;2024-03-17T15:36:17;1.88;;;1.10;;
74223;SDS011;62585;49.706;18.216;2024-03-17T15:38:45;3.22;;;1.25;;
74223;SDS011;62585;49.706;18.216;2024-03-17T15:41:11;2.33;;;1.10;;